createdAt,value
2022-11-13T00:01:26.591Z,10.40
2022-11-13T00:03:55.334Z,10.40
2022-11-13T00:06:25.718Z,10.40
2022-11-13T00:08:56.168Z,10.40
2022-11-13T00:11:24.877Z,10.50
2022-11-13T00:13:53.629Z,10.50
2022-11-13T00:16:23.513Z,10.60
2022-11-13T00:18:52.162Z,10.60
2022-11-13T00:21:22.657Z,10.50
2022-11-13T00:23:53.570Z,10.50
2022-11-13T00:26:23.703Z,10.50
2022-11-13T00:28:55.667Z,10.50
2022-11-13T00:31:24.399Z,10.60
2022-11-13T00:36:42.324Z,10.60
2022-11-13T00:39:12.539Z,10.60
2022-11-13T00:41:41.228Z,10.40
2022-11-13T00:44:10.017Z,10.40
2022-11-13T00:46:38.748Z,10.40
2022-11-13T00:49:07.485Z,10.30
2022-11-13T00:51:36.081Z,10.20
2022-11-13T00:54:04.899Z,10.20
2022-11-13T00:56:34.952Z,10.00
2022-11-13T00:59:03.674Z,10.20
2022-11-13T01:01:32.657Z,10.30
2022-11-13T01:04:01.486Z,10.20
2022-11-13T01:06:30.802Z,10.00
2022-11-13T01:09:01.113Z,10.10
2022-11-13T01:11:31.351Z,10.00
2022-11-13T01:14:01.478Z,10.10
2022-11-13T01:16:30.457Z,10.10
2022-11-13T01:18:59.255Z,10.20
2022-11-13T01:21:29.171Z,10.20
2022-11-13T01:23:58.015Z,10.10
2022-11-13T01:26:28.920Z,10.00
2022-11-13T01:28:59.210Z,10.10
2022-11-13T01:31:31.297Z,10.10
2022-11-13T01:34:00.181Z,10.10
2022-11-13T01:36:30.832Z,10.30
2022-11-13T01:38:59.711Z,10.10
2022-11-13T01:41:30.278Z,10.10
2022-11-13T01:44:00.980Z,10.10
2022-11-13T01:46:33.435Z,10.00
2022-11-13T01:49:12.066Z,9.80
2022-11-13T01:51:43.256Z,9.70
2022-11-13T01:54:16.057Z,9.70
2022-11-13T01:56:46.010Z,9.60
2022-11-13T01:59:18.911Z,9.60
2022-11-13T02:01:49.190Z,9.60
2022-11-13T02:04:17.862Z,9.70
2022-11-13T02:06:50.784Z,9.80
2022-11-13T02:09:22.554Z,9.90
2022-11-13T02:11:51.739Z,9.70
2022-11-13T02:14:22.464Z,9.80
2022-11-13T02:16:56.930Z,9.70
2022-11-13T02:19:31.136Z,9.70
2022-11-13T02:22:08.386Z,9.60
2022-11-13T02:24:44.991Z,9.50
2022-11-13T02:27:21.676Z,9.60
2022-11-13T02:29:50.324Z,9.60
2022-11-13T02:32:19.069Z,9.50
2022-11-13T02:34:47.681Z,9.60
2022-11-13T02:37:16.434Z,9.40
2022-11-13T02:39:46.583Z,9.30
2022-11-13T02:42:15.348Z,9.30
2022-11-13T02:44:44.056Z,9.30
2022-11-13T02:47:12.680Z,9.20
2022-11-13T02:49:41.352Z,9.10
2022-11-13T02:52:09.950Z,9.00
2022-11-13T02:54:38.623Z,9.10
2022-11-13T02:57:08.698Z,9.10
2022-11-13T02:59:37.412Z,9.10
2022-11-13T03:02:06.124Z,9.20
2022-11-13T03:05:05.244Z,9.20
2022-11-13T03:07:23.638Z,9.10
2022-11-13T03:09:52.310Z,8.90
2022-11-13T03:12:22.910Z,8.80
2022-11-13T03:14:51.631Z,8.90
2022-11-13T03:17:20.312Z,9.00
2022-11-13T03:19:49.013Z,9.10
2022-11-13T03:22:17.789Z,9.30
2022-11-13T03:24:46.546Z,9.40
2022-11-13T03:27:15.256Z,9.60
2022-11-13T03:29:45.489Z,9.50
2022-11-13T03:32:14.180Z,9.50
2022-11-13T03:34:42.826Z,9.60
2022-11-13T03:37:11.450Z,9.70
2022-11-13T03:39:40.111Z,9.90
2022-11-13T03:42:08.983Z,9.90
2022-11-13T03:44:37.601Z,10.00
2022-11-13T03:47:07.742Z,10.00
2022-11-13T03:49:36.446Z,10.10
2022-11-13T03:52:05.828Z,10.10
2022-11-13T03:54:34.634Z,9.90
2022-11-13T03:57:03.370Z,9.90
2022-11-13T03:59:32.108Z,10.00
2022-11-13T04:02:00.765Z,9.90
2022-11-13T04:04:30.909Z,9.90
2022-11-13T04:06:59.567Z,9.90
2022-11-13T04:09:28.323Z,9.80
2022-11-13T04:11:56.992Z,9.70
2022-11-13T04:14:26.683Z,9.70
2022-11-13T04:16:55.343Z,9.60
2022-11-13T04:19:24.039Z,9.80
2022-11-13T04:21:54.105Z,9.80
2022-11-13T04:24:22.808Z,9.70
2022-11-13T04:26:51.514Z,9.80
2022-11-13T04:29:20.154Z,9.90
2022-11-13T04:31:48.988Z,9.90
2022-11-13T04:34:17.610Z,9.70
2022-11-13T04:36:46.331Z,9.70
2022-11-13T04:39:16.432Z,9.70
2022-11-13T04:42:02.326Z,9.70
2022-11-13T04:44:31.001Z,9.60
2022-11-13T04:46:59.659Z,9.60
2022-11-13T04:49:28.361Z,9.70
2022-11-13T04:51:57.008Z,9.70
2022-11-13T04:54:28.948Z,9.70
2022-11-13T04:56:58.044Z,9.80
2022-11-13T04:59:26.776Z,9.90
2022-11-13T05:01:55.945Z,10.00
2022-11-13T05:04:24.924Z,10.00
2022-11-13T05:06:53.609Z,10.00
2022-11-13T05:09:22.278Z,10.00
2022-11-13T05:11:52.351Z,10.00
2022-11-13T05:14:21.029Z,10.00
2022-11-13T05:16:50.372Z,10.00
2022-11-13T05:19:19.277Z,10.00
2022-11-13T05:21:47.913Z,10.00
2022-11-13T05:24:16.533Z,10.00
2022-11-13T05:26:46.490Z,9.90
2022-11-13T05:29:16.597Z,9.90
2022-11-13T05:31:45.685Z,9.80
2022-11-13T05:34:14.449Z,9.80
2022-11-13T05:36:43.109Z,9.90
2022-11-13T05:39:12.679Z,10.00
2022-11-13T05:41:41.709Z,9.80
2022-11-13T05:44:10.501Z,9.80
2022-11-13T05:46:40.942Z,9.70
2022-11-13T05:49:11.081Z,9.70
2022-11-13T05:51:39.731Z,9.70
2022-11-13T05:54:08.428Z,9.70
2022-11-13T05:56:38.372Z,9.70
2022-11-13T05:59:07.249Z,9.60
2022-11-13T06:01:38.329Z,9.60
2022-11-13T06:04:09.454Z,9.60
2022-11-13T06:06:38.130Z,9.50
2022-11-13T06:09:07.816Z,9.50
2022-11-13T06:11:36.448Z,9.40
2022-11-13T06:14:05.205Z,9.40
2022-11-13T06:16:37.167Z,9.40
2022-11-13T06:19:09.161Z,9.30
2022-11-13T06:21:41.325Z,9.40
2022-11-13T06:24:12.623Z,9.40
2022-11-13T06:26:41.472Z,9.30
2022-11-13T06:29:12.864Z,9.20
2022-11-13T06:31:41.950Z,9.20
2022-11-13T06:34:12.070Z,9.20
2022-11-13T06:36:40.730Z,9.10
2022-11-13T06:39:10.876Z,9.00
2022-11-13T06:41:40.247Z,9.00
2022-11-13T06:44:09.086Z,9.00
2022-11-13T06:46:37.731Z,9.10
2022-11-13T06:49:06.378Z,9.10
2022-11-13T06:51:36.471Z,8.90
2022-11-13T06:54:05.259Z,8.80
2022-11-13T06:56:33.892Z,8.80
2022-11-13T06:59:06.279Z,8.80
2022-11-13T07:01:36.900Z,8.90
2022-11-13T07:04:06.640Z,8.90
2022-11-13T07:06:40.351Z,8.90
2022-11-13T07:09:09.395Z,9.00
2022-11-13T07:11:38.034Z,8.90
2022-11-13T07:14:07.271Z,8.90
2022-11-13T07:16:56.653Z,9.10
2022-11-13T07:19:24.643Z,9.20
2022-11-13T07:21:54.742Z,9.10
2022-11-13T07:24:23.393Z,9.00
2022-11-13T07:26:52.074Z,9.00
2022-11-13T07:29:20.753Z,9.10
2022-11-13T07:31:49.476Z,9.20
2022-11-13T07:34:18.105Z,9.20
2022-11-13T07:36:46.882Z,9.20
2022-11-13T07:39:17.029Z,9.20
2022-11-13T07:41:45.734Z,9.20
2022-11-13T07:44:27.197Z,9.10
2022-11-13T07:47:03.196Z,9.30
2022-11-13T07:49:31.935Z,9.30
2022-11-13T07:52:00.656Z,9.30
2022-11-13T07:54:30.785Z,9.30
2022-11-13T07:56:59.497Z,9.40
2022-11-13T07:59:28.195Z,9.40
2022-11-13T08:01:56.903Z,9.60
2022-11-13T08:04:25.980Z,9.50
2022-11-13T08:06:54.712Z,9.40
2022-11-13T08:09:23.455Z,9.60
2022-11-13T08:11:53.583Z,9.60
2022-11-13T08:14:22.310Z,9.80
2022-11-13T08:16:51.031Z,9.80
2022-11-13T08:19:19.760Z,9.70
2022-11-13T08:21:48.465Z,9.50
2022-11-13T08:24:17.208Z,9.50
2022-11-13T08:26:45.888Z,9.40
2022-11-13T08:29:15.927Z,9.40
2022-11-13T08:31:44.676Z,9.50
2022-11-13T08:34:13.365Z,9.50
2022-11-13T08:36:42.097Z,9.70
2022-11-13T08:39:11.033Z,9.90
2022-11-13T08:41:39.828Z,10.10
2022-11-13T08:44:09.041Z,10.20
2022-11-13T08:46:39.725Z,10.50
2022-11-13T08:49:08.782Z,10.60
2022-11-13T08:51:37.487Z,10.50
2022-11-13T08:54:06.497Z,10.30
2022-11-13T08:56:35.239Z,10.30
2022-11-13T08:59:03.924Z,10.40
2022-11-13T09:01:32.621Z,10.30
2022-11-13T09:04:03.105Z,10.20
2022-11-13T09:06:31.864Z,10.40
2022-11-13T09:09:00.790Z,10.60
2022-11-13T09:11:29.586Z,10.80
2022-11-13T09:13:58.274Z,10.80
2022-11-13T09:16:26.931Z,10.70
2022-11-13T09:18:55.622Z,10.70
2022-11-13T09:21:25.768Z,10.90
2022-11-13T09:23:54.579Z,11.10
2022-11-13T09:26:23.293Z,11.10
2022-11-13T09:28:52.040Z,11.20
2022-11-13T09:31:20.819Z,11.20
2022-11-13T09:33:49.530Z,11.30
2022-11-13T09:36:18.429Z,11.40
2022-11-13T09:38:48.614Z,11.50
2022-11-13T09:41:22.167Z,11.60
2022-11-13T09:43:59.302Z,11.80
2022-11-13T09:46:39.479Z,11.90
2022-11-13T09:49:17.471Z,11.70
2022-11-13T09:51:52.886Z,11.60
2022-11-13T09:54:24.323Z,11.30
2022-11-13T09:56:59.085Z,11.10
2022-11-13T09:59:33.754Z,10.90
2022-11-13T10:02:20.825Z,10.80
2022-11-13T10:04:59.226Z,10.80
2022-11-13T10:07:38.169Z,11.10
2022-11-13T10:10:39.637Z,11.00
2022-11-13T10:13:14.619Z,10.90
2022-11-13T10:15:46.435Z,10.90
2022-11-13T10:18:18.710Z,11.00
2022-11-13T10:20:51.646Z,11.00
2022-11-13T10:23:22.795Z,10.90
2022-11-13T10:25:54.577Z,10.90
2022-11-13T10:28:49.478Z,10.70
2022-11-13T10:31:15.613Z,10.70
2022-11-13T10:33:44.484Z,10.50
2022-11-13T10:36:22.547Z,10.60
2022-11-13T10:38:59.980Z,10.40
2022-11-13T10:41:30.383Z,10.20
2022-11-13T10:44:19.948Z,10.20
2022-11-13T10:46:50.038Z,10.10
2022-11-13T10:49:22.317Z,10.20
2022-11-13T10:51:58.241Z,10.20
2022-11-13T10:54:29.278Z,10.20
2022-11-13T10:57:01.522Z,10.10
2022-11-13T10:59:40.885Z,10.10
2022-11-13T11:02:20.457Z,10.00
2022-11-13T11:04:49.411Z,10.10
2022-11-13T11:07:21.417Z,10.10
2022-11-13T11:09:52.390Z,10.20
2022-11-13T11:12:30.608Z,10.20
2022-11-13T11:15:21.544Z,10.10
2022-11-13T11:17:54.114Z,10.20
2022-11-13T11:20:28.324Z,10.30
2022-11-13T11:23:08.189Z,10.50
2022-11-13T11:25:40.829Z,10.50
2022-11-13T11:28:17.277Z,10.40
2022-11-13T11:30:52.563Z,10.20
2022-11-13T11:33:30.837Z,10.00
2022-11-13T11:36:08.609Z,10.20
2022-11-13T11:38:43.978Z,10.40
2022-11-13T11:41:17.089Z,10.50
2022-11-13T11:43:50.905Z,10.80
2022-11-13T11:46:26.094Z,10.80
2022-11-13T11:48:54.930Z,10.90
2022-11-13T11:51:27.764Z,10.70
2022-11-13T11:54:07.618Z,10.50
2022-11-13T11:56:38.666Z,10.30
2022-11-13T11:59:21.405Z,10.20
2022-11-13T12:02:16.736Z,9.90
2022-11-13T12:05:00.791Z,9.70
2022-11-13T12:07:39.427Z,9.80
2022-11-13T12:10:20.587Z,9.80
2022-11-13T12:13:05.551Z,9.90
2022-11-13T12:15:46.952Z,9.80
2022-11-13T12:18:24.657Z,9.70
2022-11-13T12:21:12.066Z,9.50
2022-11-13T12:24:00.274Z,9.40
2022-11-13T12:26:34.480Z,9.20
2022-11-13T12:29:20.800Z,9.10
2022-11-13T12:32:00.605Z,9.10
2022-11-13T12:34:34.562Z,9.30
2022-11-13T12:37:14.424Z,9.40
2022-11-13T12:39:52.360Z,9.60
2022-11-13T12:42:29.882Z,9.60
2022-11-13T12:45:07.354Z,9.70
2022-11-13T12:47:38.427Z,9.80
2022-11-13T12:50:28.742Z,10.00
2022-11-13T12:53:02.782Z,10.00
2022-11-13T12:55:32.968Z,9.90
2022-11-13T12:58:10.821Z,9.80
2022-11-13T13:00:42.866Z,9.60
2022-11-13T13:03:48.400Z,9.40
2022-11-13T13:06:36.357Z,9.40
2022-11-13T13:09:18.414Z,9.40
2022-11-13T13:11:52.716Z,9.50
2022-11-13T13:14:37.402Z,9.60
2022-11-13T13:17:18.643Z,9.80
2022-11-13T13:20:00.347Z,10.00
2022-11-13T13:22:31.705Z,10.00
2022-11-13T13:25:02.738Z,10.20
2022-11-13T13:27:35.759Z,10.30
2022-11-13T13:30:18.417Z,10.40
2022-11-13T13:32:56.610Z,10.30
2022-11-13T13:35:32.484Z,10.10
2022-11-13T13:38:07.329Z,10.00
2022-11-13T13:40:42.751Z,9.90
2022-11-13T13:43:29.847Z,9.80
2022-11-13T13:46:07.354Z,9.90
2022-11-13T13:48:40.924Z,10.00
2022-11-13T13:51:19.378Z,10.00
2022-11-13T13:53:49.820Z,10.10
2022-11-13T13:56:20.449Z,10.00
2022-11-13T13:58:50.042Z,9.90
2022-11-13T14:01:29.436Z,9.90
2022-11-13T14:04:14.165Z,9.80
2022-11-13T14:06:52.501Z,9.80
2022-11-13T14:09:24.046Z,9.80
2022-11-13T14:12:00.666Z,9.80
2022-11-13T14:14:30.885Z,9.70
2022-11-13T14:17:01.959Z,9.60
2022-11-13T14:19:30.680Z,9.60
2022-11-13T14:22:03.612Z,9.60
2022-11-13T14:24:34.992Z,9.50
2022-11-13T14:27:08.966Z,9.70
2022-11-13T14:29:41.337Z,9.80
2022-11-13T14:32:15.036Z,9.90
2022-11-13T14:34:46.121Z,9.80
2022-11-13T14:37:24.609Z,9.80
2022-11-13T14:39:55.982Z,9.80
2022-11-13T14:42:27.977Z,9.70
2022-11-13T14:45:14.733Z,9.60
2022-11-13T14:47:44.543Z,9.60
2022-11-13T14:50:24.768Z,9.50
2022-11-13T14:53:04.482Z,9.40
2022-11-13T14:55:34.744Z,9.20
2022-11-13T14:58:04.060Z,9.10
2022-11-13T15:00:35.132Z,9.00
2022-11-13T15:03:06.513Z,9.00
2022-11-13T15:05:35.744Z,8.90
2022-11-13T15:08:06.097Z,8.90
2022-11-13T15:10:34.858Z,8.70
2022-11-13T15:13:03.831Z,8.80
2022-11-13T15:15:32.891Z,8.70
2022-11-13T15:18:04.313Z,8.60
2022-11-13T15:20:33.995Z,8.50
2022-11-13T15:23:03.324Z,8.40
2022-11-13T15:25:33.980Z,8.30
2022-11-13T15:28:02.973Z,8.40
2022-11-13T15:30:31.786Z,8.40
2022-11-13T15:33:02.085Z,8.30
2022-11-13T15:35:33.526Z,8.20
2022-11-13T15:38:02.265Z,8.20
2022-11-13T15:40:32.441Z,8.20
2022-11-13T15:43:01.663Z,8.20
2022-11-13T15:45:30.514Z,8.20
2022-11-13T15:48:02.365Z,8.10
2022-11-13T15:50:31.370Z,8.10
2022-11-13T15:53:05.017Z,8.00
2022-11-13T15:55:36.157Z,8.10
2022-11-13T15:58:05.561Z,8.00
2022-11-13T16:00:34.697Z,8.00
2022-11-13T16:03:10.832Z,7.90
2022-11-13T16:05:40.452Z,7.80
2022-11-13T16:08:13.603Z,7.90
2022-11-13T16:10:46.746Z,7.80
2022-11-13T16:13:15.534Z,7.70
2022-11-13T16:15:47.440Z,7.70
2022-11-13T16:18:23.565Z,7.80
2022-11-13T16:20:52.515Z,7.70
2022-11-13T16:23:22.453Z,7.70
2022-11-13T16:25:55.978Z,7.70
2022-11-13T16:28:25.386Z,7.70
2022-11-13T16:30:54.169Z,7.70
2022-11-13T16:33:22.974Z,7.60
2022-11-13T16:35:51.817Z,7.60
2022-11-13T16:38:20.573Z,7.50
2022-11-13T16:40:49.679Z,7.50
2022-11-13T16:43:20.236Z,7.50
2022-11-13T16:45:49.459Z,7.40
2022-11-13T16:48:18.696Z,7.40
2022-11-13T16:50:47.928Z,7.40
2022-11-13T16:53:17.675Z,7.40
2022-11-13T16:55:47.409Z,7.40
2022-11-13T16:58:17.021Z,7.30
2022-11-13T17:00:47.735Z,7.30
2022-11-13T17:03:16.975Z,7.30
2022-11-13T17:05:46.160Z,7.20
2022-11-13T17:08:15.248Z,7.20
2022-11-13T17:10:44.025Z,7.10
2022-11-13T17:13:13.500Z,7.10
2022-11-13T17:15:42.648Z,7.00
2022-11-13T17:18:13.179Z,6.90
2022-11-13T17:20:42.333Z,7.00
2022-11-13T17:23:15.588Z,6.90
2022-11-13T17:25:44.801Z,6.90
2022-11-13T17:28:13.934Z,6.80
2022-11-13T17:30:42.748Z,6.90
2022-11-13T17:33:13.309Z,6.90
2022-11-13T17:35:42.728Z,6.90
2022-11-13T17:38:15.686Z,6.90
2022-11-13T17:40:44.734Z,6.90
2022-11-13T17:43:13.547Z,6.90
2022-11-13T17:45:42.728Z,6.90
2022-11-13T17:48:13.698Z,6.80
2022-11-13T17:50:42.493Z,6.80
2022-11-13T17:53:11.570Z,6.80
2022-11-13T17:55:41.740Z,6.80
2022-11-13T17:58:11.065Z,6.80
2022-11-13T18:00:40.452Z,6.70
2022-11-13T18:03:09.290Z,6.70
2022-11-13T18:05:40.940Z,6.70
2022-11-13T18:08:12.699Z,6.70
2022-11-13T18:10:42.942Z,6.70
2022-11-13T18:13:12.868Z,6.70
2022-11-13T18:15:44.212Z,6.70
2022-11-13T18:18:13.828Z,6.60
2022-11-13T18:20:44.618Z,6.50
2022-11-13T18:23:13.882Z,6.50
2022-11-13T18:25:43.655Z,6.50
2022-11-13T18:28:12.532Z,6.60
2022-11-13T18:30:41.861Z,6.60
2022-11-13T18:33:11.616Z,6.60
2022-11-13T18:35:41.380Z,6.50
2022-11-13T18:38:12.105Z,6.50
2022-11-13T18:40:42.379Z,6.50
2022-11-13T18:43:11.604Z,6.50
2022-11-13T18:45:43.725Z,6.50
2022-11-13T18:48:13.490Z,6.50
2022-11-13T18:50:44.282Z,6.40
2022-11-13T18:53:15.090Z,6.40
2022-11-13T18:55:43.939Z,6.50
2022-11-13T18:58:13.287Z,6.40
2022-11-13T19:00:42.629Z,6.30
2022-11-13T19:03:12.252Z,6.30
2022-11-13T19:05:46.217Z,6.30
2022-11-13T19:08:17.177Z,6.30
2022-11-13T19:10:46.408Z,6.30
2022-11-13T19:13:16.985Z,6.30
2022-11-13T19:15:47.664Z,6.30
2022-11-13T19:18:16.977Z,6.30
2022-11-13T19:20:46.275Z,6.30
2022-11-13T19:23:17.413Z,6.30
2022-11-13T19:25:49.306Z,6.30
2022-11-13T19:28:18.601Z,6.30
2022-11-13T19:30:49.096Z,6.20
2022-11-13T19:33:18.410Z,6.20
2022-11-13T19:35:47.655Z,6.30
2022-11-13T19:38:18.814Z,6.20
2022-11-13T19:40:51.176Z,6.20
2022-11-13T19:43:20.781Z,6.20
2022-11-13T19:45:50.047Z,6.20
2022-11-13T19:48:19.256Z,6.10
2022-11-13T19:50:49.044Z,6.10
2022-11-13T19:53:22.916Z,6.10
2022-11-13T19:55:56.981Z,6.00
2022-11-13T19:58:26.849Z,6.00
2022-11-13T20:00:57.371Z,6.00
2022-11-13T20:03:29.042Z,5.90
2022-11-13T20:05:59.977Z,5.80
2022-11-13T20:08:31.331Z,5.80
2022-11-13T20:11:04.871Z,5.80
2022-11-13T20:13:37.442Z,5.80
2022-11-13T20:16:08.542Z,5.70
2022-11-13T20:18:38.624Z,5.60
2022-11-13T20:21:11.471Z,5.60
2022-11-13T20:23:43.094Z,5.50
2022-11-13T20:26:14.453Z,5.40
2022-11-13T20:28:43.275Z,5.40
2022-11-13T20:31:20.269Z,5.20
2022-11-13T20:33:50.295Z,5.10
2022-11-13T20:36:20.556Z,4.90
2022-11-13T20:38:54.094Z,4.80
2022-11-13T20:41:25.931Z,4.80
2022-11-13T20:43:56.911Z,4.80
2022-11-13T20:46:26.172Z,4.80
2022-11-13T20:48:55.416Z,4.70
2022-11-13T20:51:26.742Z,4.70
2022-11-13T20:53:58.408Z,4.80
2022-11-13T20:56:28.919Z,4.70
2022-11-13T20:58:58.731Z,4.70
2022-11-13T21:01:28.137Z,4.70
2022-11-13T21:03:59.751Z,4.70
2022-11-13T21:06:29.045Z,4.70
2022-11-13T21:08:59.592Z,4.70
2022-11-13T21:11:30.911Z,4.80
2022-11-13T21:14:00.971Z,4.70
2022-11-13T21:16:29.799Z,4.70
2022-11-13T21:18:59.711Z,4.80
2022-11-13T21:21:29.974Z,4.80
2022-11-13T21:24:01.828Z,4.80
2022-11-13T21:26:31.100Z,4.70
2022-11-13T21:29:01.391Z,4.60
2022-11-13T21:31:30.365Z,4.70
2022-11-13T21:33:59.892Z,4.70
2022-11-13T21:36:30.449Z,4.70
2022-11-13T21:39:01.090Z,4.70
2022-11-13T21:41:30.064Z,4.60
2022-11-13T21:44:00.977Z,4.40
2022-11-13T21:46:31.951Z,4.40
2022-11-13T21:49:02.668Z,4.40
2022-11-13T21:51:32.093Z,4.40
2022-11-13T21:54:02.873Z,4.50
2022-11-13T21:56:33.671Z,4.50
2022-11-13T21:59:02.439Z,4.30
2022-11-13T22:01:37.782Z,4.30
2022-11-13T22:04:07.327Z,4.30
2022-11-13T22:06:37.474Z,4.20
2022-11-13T22:09:14.400Z,4.30
2022-11-13T22:11:43.615Z,4.40
2022-11-13T22:14:12.385Z,4.40
2022-11-13T22:16:43.395Z,4.40
2022-11-13T22:19:13.748Z,4.50
2022-11-13T22:21:43.517Z,4.60
2022-11-13T22:24:15.306Z,4.60
2022-11-13T22:26:47.980Z,4.60
2022-11-13T22:29:16.774Z,4.60
2022-11-13T22:31:45.651Z,4.50
2022-11-13T22:34:14.359Z,4.60
2022-11-13T22:36:43.096Z,4.60
2022-11-13T22:39:13.426Z,4.60
2022-11-13T22:41:42.239Z,4.60
2022-11-13T22:44:14.486Z,4.60
2022-11-13T22:46:43.275Z,4.60
2022-11-13T22:49:13.925Z,4.60
2022-11-13T22:51:44.382Z,4.60
2022-11-13T22:54:14.741Z,4.50
2022-11-13T22:56:43.798Z,4.60
2022-11-13T22:59:15.025Z,4.70
2022-11-13T23:01:46.322Z,4.60
2022-11-13T23:04:15.530Z,4.50
2022-11-13T23:06:44.320Z,4.50
2022-11-13T23:09:14.503Z,4.50
2022-11-13T23:11:44.172Z,4.40
2022-11-13T23:14:15.980Z,4.40
2022-11-13T23:16:44.868Z,4.30
2022-11-13T23:19:13.590Z,4.30
2022-11-13T23:21:42.386Z,4.30
2022-11-13T23:24:13.647Z,4.30
2022-11-13T23:26:42.360Z,4.30
2022-11-13T23:29:12.538Z,4.30
2022-11-13T23:31:41.239Z,4.40
2022-11-13T23:34:10.136Z,4.30
2022-11-13T23:36:39.006Z,4.30
2022-11-13T23:39:07.747Z,4.10
2022-11-13T23:41:37.862Z,4.00
2022-11-13T23:44:09.608Z,4.00
2022-11-13T23:46:38.612Z,3.90
2022-11-13T23:49:07.543Z,3.90
2022-11-13T23:51:36.323Z,3.80
2022-11-13T23:54:05.044Z,3.90
2022-11-13T23:56:33.748Z,3.90
2022-11-13T23:59:03.883Z,3.90
